Terminal Aerodrome Forecast
Issued by NWS

Current Version | Previous Version | Text Only | Print | Product List | Glossary On
Versions: 1 2 3 4 5 6 7 8 9 10 11 12 13 14 15 16 17 18 19 20 21 22 23 24 25 26 27 28
000
FTUS46 KMTR 172300
TAFSFO
TAF
KSFO 172331Z 1800/1906 19008KT 6SM -RA BR BKN025 OVC030
      TEMPO 1800/1804 4SM RA BKN020 OVC025
     FM180800 16006KT P6SM -SHRA BKN015 OVC030
     FM181500 09004KT P6SM VCSH BKN015 OVC025
     FM181800 11004KT P6SM BKN025 OVC030=

USA.gov is the U.S. government's official web portal to all federal, state and local government web resources and services.